Latest Weather Observations for Stawell

IDV60801

Issued at 3:02 pm EST Friday 6 May 2016 (issued every 30 minutes, with the page automatically refreshed every 10 minutes)

About weather observations | Map of weather stations | Latest weather observations for VIC | Other Formats
Station Details ID: 079105 Name: STAWELL AERODROME Lat: -37.07 Lon: 142.74 Height: 235.36 m
Data from the previous 72 hours. | See also: Recent months at Stawell
Date/Time
EST
Temp
°C
App
Temp
°C
Dew
Point
Rel
Hum
%
Delta-T
°C
Wind Press
QNH
hPa
Press
MSL
hPa
Rain
since 9 am
mm
Dir
 
Spd
km/h
Gust
km/h
Spd
kts
Gust
kts
06/03:00pm 21.5 18.4 10.3 49 6.2 WNW 17 26 9 14 1013.1 1014.1 0.0
06/02:30pm 21.1 17.8 9.7 48 6.2 NNW 17 24 9 13 1013.1 - 0.0
06/02:00pm 20.7 16.9 9.0 47 6.3 NNW 19 26 10 14 1013.1 - 0.0
06/01:30pm 20.3 16.8 8.6 47 6.2 NW 17 30 9 16 1013.4 - 0.0
06/01:00pm 20.1 16.6 8.8 48 6.0 N 17 24 9 13 1013.7 - 0.0
06/12:30pm 19.5 16.4 8.8 50 5.7 N 15 20 8 11 1014.0 - 0.0
06/12:00pm 18.5 15.2 7.9 50 5.5 N 15 24 8 13 1014.5 1015.4 0.0
06/11:30am 18.6 15.5 8.8 53 5.2 N 15 22 8 12 1014.8 - 0.0
06/11:00am 17.5 14.6 8.1 54 4.8 N 13 19 7 10 1014.9 - 0.0
06/10:30am 16.8 13.9 8.2 57 4.4 N 13 19 7 10 1014.7 - 0.0
06/10:00am 15.8 13.3 8.3 61 3.8 N 11 17 6 9 1014.8 - 0.0
06/09:30am 14.8 12.3 8.1 64 3.4 N 11 17 6 9 1014.8 - 0.0
06/09:00am 13.9 11.4 8.3 69 2.8 N 11 17 6 9 1014.6 1015.5 0.0
06/08:30am 12.7 10.6 8.4 75 2.2 NNE 9 13 5 7 1014.6 - 0.0
06/08:00am 10.8 8.7 8.2 84 1.3 ENE 9 9 5 5 1014.3 - 0.0
06/07:30am 9.3 7.0 7.3 87 1.0 E 9 11 5 6 1013.9 - 0.0
06/07:00am 9.6 7.7 7.5 87 1.0 E 7 7 4 4 1013.7 - 0.0
06/06:30am 9.7 8.0 7.6 87 1.0 ENE 6 7 3 4 1013.5 - 0.0
06/06:00am 10.5 8.8 7.7 83 1.4 NNE 6 7 3 4 1013.3 1014.2 0.0
06/05:30am 9.8 8.1 7.6 86 1.1 E 6 7 3 4 1013.0 - 0.0
06/05:00am 10.8 10.3 7.7 81 1.5 CALM 0 0 0 0 1012.7 - 0.0
06/04:30am 11.6 10.3 7.5 76 2.0 N 4 6 2 3 1012.7 - 0.0
06/04:00am 11.4 10.3 7.1 75 2.1 NNE 2 7 1 4 1012.6 - 0.0
06/03:30am 12.2 11.6 7.5 73 2.3 CALM 0 2 0 1 1012.7 - 0.0
06/03:00am 12.6 10.3 7.5 71 2.5 N 9 13 5 7 1012.8 1013.8 0.0
06/02:30am 12.4 11.0 7.3 71 2.5 ENE 4 9 2 5 1012.8 - 0.0
06/02:00am 13.1 10.8 7.5 69 2.8 NE 9 13 5 7 1012.7 - 0.0
06/01:30am 13.6 11.7 7.4 66 3.1 NNE 7 11 4 6 1012.7 - 0.0
06/01:00am 14.4 12.1 7.5 63 3.4 N 9 15 5 8 1012.7 - 0.0
06/12:30am 14.8 12.1 7.4 61 3.7 N 11 20 6 11 1012.5 - 0.0
06/12:00am 14.7 12.0 7.5 62 3.6 N 11 13 6 7 1012.5 1013.5 0.0
 
Date/Time
EST
Temp
°C
App
Temp
°C
Dew
Point
Rel
Hum
%
Delta-T
°C
Wind Press
QNH
hPa
Press
MSL
hPa
Rain
since 9 am
mm
Dir
 
Spd
km/h
Gust
km/h
Spd
kts
Gust
kts
05/11:30pm 15.2 12.5 7.5 60 3.9 N 11 17 6 9 1012.7 - 0.0
05/11:00pm 15.7 12.3 7.5 58 4.1 N 15 20 8 11 1012.7 - 0.0
05/10:30pm 15.7 12.7 7.7 59 4.0 N 13 19 7 10 1012.7 - 0.0
05/10:00pm 16.0 12.6 7.7 58 4.2 N 15 19 8 10 1012.9 - 0.0
05/09:30pm 16.5 13.2 8.0 57 4.3 N 15 20 8 11 1012.9 - 0.0
05/09:00pm 16.9 13.2 8.1 56 4.5 N 17 24 9 13 1012.7 1013.7 0.0
05/08:30pm 17.3 13.7 8.2 55 4.7 N 17 22 9 12 1012.7 - 0.0
05/08:00pm 17.4 14.2 8.3 55 4.7 N 15 22 8 12 1012.5 - 0.0
05/07:30pm 17.7 14.1 8.3 54 4.9 N 17 26 9 14 1012.5 - 0.0
05/07:00pm 17.9 15.0 8.2 53 5.0 N 13 19 7 10 1012.4 - 0.0
05/06:30pm 18.4 15.5 8.1 51 5.3 N 13 17 7 9 1012.1 - 0.0
05/06:00pm 18.9 15.7 8.3 50 5.5 N 15 22 8 12 1011.7 1012.7 0.0
05/05:30pm 19.3 15.6 8.0 48 5.9 N 17 28 9 15 1011.6 - 0.0
05/05:00pm 19.9 14.5 7.9 46 6.3 N 26 39 14 21 1011.4 - 0.0
05/04:30pm 20.2 14.8 7.9 45 6.4 NNW 26 37 14 20 1011.4 - 0.0
05/04:00pm 20.4 15.4 8.1 45 6.5 NNW 24 33 13 18 1011.5 - 0.0
05/03:30pm 20.7 15.7 8.0 44 6.7 NNW 24 35 13 19 1011.6 - 0.0
05/03:00pm 20.3 14.5 8.0 45 6.4 NNW 28 41 15 22 1011.8 1012.8 0.0
05/02:30pm 19.7 13.9 7.8 46 6.2 NNW 28 39 15 21 1011.9 - 0.0
05/02:27pm 19.8 14.1 8.2 47 6.1 NNW 28 46 15 25 1012.0 - 0.0
05/02:00pm 20.0 13.3 8.0 46 6.3 NNW 33 46 18 25 1012.1 - 0.0
05/01:39pm 19.3 12.6 8.0 48 5.9 NNW 33 52 18 28 1012.3 - 0.0
05/01:30pm 19.2 12.6 7.9 48 5.9 N 32 48 17 26 1012.3 - 0.0
05/01:00pm 19.5 13.1 8.5 49 5.8 NNW 32 54 17 29 1012.6 - 0.0
05/12:59pm 19.2 12.7 8.2 49 5.7 NW 32 50 17 27 1012.7 - 0.0
05/12:30pm 18.4 12.7 8.4 52 5.2 N 28 43 15 23 1013.1 - 0.0
05/12:14pm 17.9 11.8 8.2 53 5.0 NNW 30 50 16 27 1013.8 - 0.0
05/12:00pm 18.0 11.4 8.6 54 4.9 NNW 33 48 18 26 1013.8 1014.7 0.0
05/11:46am 17.7 11.3 8.6 55 4.7 NNW 32 54 17 29 1014.0 - 0.0
05/11:30am 17.3 12.1 9.0 58 4.4 NNW 26 39 14 21 1014.4 - 0.0
05/11:00am 16.7 10.8 8.9 60 4.1 N 30 44 16 24 1014.7 - 0.0
05/10:30am 16.1 10.5 8.8 62 3.8 N 28 39 15 21 1015.0 - 0.0
05/10:00am 15.6 11.5 8.8 64 3.5 N 20 30 11 16 1015.3 - 0.0
05/09:30am 14.9 10.5 8.8 67 3.1 N 22 32 12 17 1015.5 - 0.0
05/09:00am 14.4 10.6 9.0 70 2.8 N 19 26 10 14 1015.4 1016.4 0.0
05/08:30am 13.9 9.9 8.9 72 2.6 N 20 28 11 15 1015.3 - 0.0
05/08:00am 13.4 10.4 9.3 76 2.1 N 15 22 8 12 1015.3 - 0.0
05/07:30am 13.5 10.5 9.2 75 2.2 N 15 22 8 12 1015.3 - 0.0
05/07:00am 13.4 10.0 9.1 75 2.2 N 17 24 9 13 1015.1 - 0.0
05/06:30am 13.2 9.8 9.3 77 2.0 N 17 20 9 11 1014.9 - 0.0
05/06:00am 13.0 10.0 9.3 78 1.9 N 15 20 8 11 1014.7 1015.6 0.0
05/05:30am 13.0 10.4 9.3 78 1.9 N 13 19 7 10 1014.8 - 0.0
05/05:00am 13.0 10.3 9.1 77 2.0 N 13 19 7 10 1014.8 - 0.0
05/04:30am 13.0 10.3 8.9 76 2.1 N 13 19 7 10 1014.7 - 0.0
05/04:00am 13.0 10.3 8.9 76 2.1 N 13 17 7 9 1014.8 - 0.0
05/03:30am 13.1 10.0 8.8 75 2.2 N 15 20 8 11 1014.9 - 0.0
05/03:00am 13.2 9.7 8.7 74 2.3 N 17 24 9 13 1015.0 1016.0 0.0
05/02:30am 13.3 9.8 8.8 74 2.3 NNW 17 24 9 13 1015.2 - 0.0
05/02:00am 13.4 10.3 8.7 73 2.4 NNW 15 20 8 11 1015.1 - 0.0
05/01:30am 13.5 10.3 8.6 72 2.5 N 15 20 8 11 1015.2 - 0.0
05/01:00am 13.5 11.1 8.6 72 2.5 N 11 19 6 10 1015.3 - 0.0
05/12:30am 13.6 11.2 8.7 72 2.5 N 11 15 6 8 1015.4 - 0.0
05/12:00am 13.7 11.3 8.5 71 2.6 N 11 20 6 11 1015.4 1016.4 0.0
 
Date/Time
EST
Temp
°C
App
Temp
°C
Dew
Point
Rel
Hum
%
Delta-T
°C
Wind Press
QNH
hPa
Press
MSL
hPa
Rain
since 9 am
mm
Dir
 
Spd
km/h
Gust
km/h
Spd
kts
Gust
kts
04/11:30pm 13.7 11.3 8.5 71 2.6 N 11 17 6 9 1015.4 - 0.0
04/11:00pm 13.6 10.8 8.7 72 2.5 NNW 13 19 7 10 1015.6 - 0.0
04/10:30pm 13.4 11.1 8.9 74 2.3 N 11 17 6 9 1015.8 - 0.0
04/10:00pm 13.2 10.9 8.9 75 2.2 NNE 11 15 6 8 1015.8 - 0.0
04/09:30pm 13.3 11.0 9.0 75 2.2 NNE 11 15 6 8 1015.9 - 0.0
04/09:00pm 13.3 11.0 9.0 75 2.2 N 11 17 6 9 1015.8 1016.8 0.0
04/08:30pm 13.3 11.4 9.2 76 2.1 N 9 13 5 7 1015.6 - 0.0
04/08:00pm 13.2 11.4 9.5 78 1.9 NNW 9 13 5 7 1015.4 - 0.0
04/07:30pm 13.0 11.6 9.6 80 1.8 N 7 11 4 6 1015.3 - 0.0
04/07:00pm 12.9 11.7 9.5 80 1.8 N 6 11 3 6 1015.1 - 0.0
04/06:30pm 12.9 11.1 9.5 80 1.8 NNW 9 13 5 7 1014.8 - 0.0
04/06:00pm 13.1 9.3 9.7 80 1.8 NNW 20 30 11 16 1014.3 1015.2 0.0
04/05:30pm 13.7 9.7 9.0 73 2.4 NNW 20 32 11 17 1013.9 - 0.0
04/05:00pm 14.5 10.3 8.2 66 3.2 NNW 20 32 11 17 1013.7 - 0.0
04/04:30pm 15.2 10.4 7.5 60 3.9 NNW 22 32 12 17 1013.4 - 0.0
04/04:00pm 14.8 10.6 7.6 62 3.6 NW 19 32 10 17 1013.4 - 0.0
04/03:30pm 14.8 9.6 7.4 61 3.7 NNW 24 32 13 17 1013.5 - 0.0
04/03:00pm 14.7 10.3 7.5 62 3.6 NW 20 28 11 15 1013.6 1014.5 0.0
04/02:30pm 14.3 10.1 7.4 63 3.4 NW 19 28 10 15 1013.7 - 0.0
04/02:00pm 14.5 10.2 7.1 61 3.7 NW 19 28 10 15 1013.7 - 0.0
04/01:30pm 14.0 9.2 7.5 65 3.2 NNW 22 32 12 17 1014.0 - 0.0
04/01:00pm 13.8 9.0 7.3 65 3.2 NNW 22 37 12 20 1014.3 - 0.0
04/12:30pm 13.6 9.0 8.0 69 2.8 NNW 22 28 12 15 1014.6 - 0.0
04/12:00pm 12.6 8.4 8.1 74 2.2 NNW 20 30 11 16 1015.1 1016.1 0.0
04/11:30am 12.0 7.9 8.5 79 1.8 NNW 20 32 11 17 1015.3 - 0.0
04/11:00am 11.6 8.9 8.8 83 1.4 N 13 19 7 10 1015.5 - 0.0
04/10:30am 10.6 7.4 8.5 87 1.0 N 15 20 8 11 1015.4 - 0.0
04/10:00am 9.5 7.9 8.7 95 0.4 NNE 7 11 4 6 1015.5 - 0.0
04/09:30am 8.5 6.8 8.4 99 0.0 NNE 7 11 4 6 1015.4 - 0.0
04/09:00am 7.6 5.7 7.5 99 0.0 NE 7 9 4 5 1015.2 1016.2 1.6
04/08:30am 6.7 4.8 6.6 99 0.0 NE 6 7 3 4 1014.9 - 1.6
04/08:00am 6.2 4.9 6.1 99 0.0 NNE 2 7 1 4 1014.5 - 1.6
04/07:30am 6.2 4.2 6.1 99 0.0 ENE 6 9 3 5 1013.9 - 1.6
04/07:00am 6.4 5.6 6.3 99 0.0 CALM 0 6 0 3 1013.5 - 1.6
04/06:30am 6.6 4.1 6.5 99 0.0 N 9 11 5 6 1012.8 - 1.6
04/06:00am 7.2 4.7 6.6 96 0.3 N 9 11 5 6 1012.6 1013.6 1.6
04/05:30am 7.4 4.5 6.7 95 0.3 N 11 13 6 7 1012.5 - 1.6
04/05:00am 7.2 5.0 6.1 93 0.5 N 7 9 4 5 1011.9 - 1.6
04/04:30am 7.8 5.8 7.1 95 0.3 N 7 9 4 5 1011.6 - 1.6
04/04:00am 7.6 5.6 6.9 95 0.3 N 7 9 4 5 1011.3 - 1.6
04/03:30am 7.9 5.8 6.8 93 0.5 NW 7 9 4 5 1011.2 - 1.6
04/03:00am 8.3 5.9 6.9 91 0.7 NW 9 13 5 7 1010.9 1011.8 1.6
04/02:30am 8.9 5.8 7.2 89 0.8 NW 13 17 7 9 1010.4 - 1.6
04/02:00am 9.5 6.4 7.4 87 1.0 NNW 13 19 7 10 1010.1 - 1.6
04/01:30am 9.6 6.6 7.9 89 0.8 N 13 17 7 9 1010.1 - 1.6
04/01:00am 9.8 7.1 7.4 85 1.2 N 11 15 6 8 1010.1 - 1.6
04/12:30am 10.5 8.2 5.9 73 2.2 NW 7 13 4 7 1009.8 - 1.6
04/12:00am 10.6 8.8 5.6 71 2.3 NW 4 9 2 5 1009.9 1010.8 1.6
 
Date/Time
EST
Temp
°C
App
Temp
°C
Dew
Point
Rel
Hum
%
Delta-T
°C
Wind Press
QNH
hPa
Press
MSL
hPa
Rain
since 9 am
mm
Dir
 
Spd
km/h
Gust
km/h
Spd
kts
Gust
kts
03/11:30pm 10.5 7.9 5.9 73 2.2 WNW 9 22 5 12 1009.5 - 1.6
03/11:00pm 10.6 6.9 6.2 74 2.1 WNW 15 24 8 13 1009.2 - 1.6
03/10:30pm 10.8 8.0 6.9 77 1.9 WNW 11 17 6 9 1008.8 - 1.6
03/10:00pm 10.5 7.5 7.7 83 1.4 W 13 26 7 14 1008.4 - 1.6
03/09:30pm 9.9 7.6 9.0 94 0.4 NNW 11 19 6 10 1008.3 - 1.6
03/09:00pm 10.0 6.8 8.3 89 0.8 W 15 24 8 13 1007.8 1008.8 1.4
03/08:30pm 11.7 9.0 7.2 74 2.2 WNW 11 17 6 9 1007.5 - 0.0
03/08:00pm 12.4 9.1 6.2 66 3.0 WNW 13 22 7 12 1006.8 - 0.0
03/07:30pm 12.5 9.5 6.1 65 3.1 WNW 11 22 6 12 1006.3 - 0.0
03/07:00pm 12.8 9.0 5.9 63 3.3 W 15 22 8 12 1005.9 - 0.0
03/06:30pm 13.0 9.2 5.9 62 3.4 W 15 24 8 13 1005.6 - 0.0
03/06:00pm 13.2 9.0 5.6 60 3.6 W 17 28 9 15 1004.9 1005.8 0.0
03/05:30pm 13.4 8.6 5.8 60 3.6 W 20 37 11 20 1004.4 - 0.0
03/05:00pm 13.1 9.1 8.2 72 2.5 W 19 32 10 17 1004.1 - 0.0
03/04:30pm 13.7 9.7 9.0 73 2.4 SW 20 28 11 15 1003.2 - 0.0
03/04:00pm 14.9 9.8 7.5 61 3.7 WNW 24 37 13 20 1002.5 - 0.0
03/03:30pm 15.1 10.7 7.4 60 3.9 WNW 20 33 11 18 1002.3 - 0.0

Other Formats:

Comma delimited format used in spreadsheet applications
http://www.bom.gov.au/fwo/IDV60801/IDV60801.94836.axf

JavaScript Object Notation format (JSON) in row-major order
http://www.bom.gov.au/fwo/IDV60801/IDV60801.94836.json